Disclaimer

Please do not use the information listed here in-flight or in-navigation, as they are not provided to us by the airports but are provided by volunteers, so they might be outdated.

Search


Regions


Airport information page

Radio informations:
COCO TWR - 118.6 MHz
Ground (GND) - 121.9 MHz
CLNC - 121.3 MHz
COCO CON - 119.6 MHz

Airport informations:
Latitude: 09° 59' 37.90" N
Longitude: 084° 12' 31.70" W
Elevation: 3021 feet - 921 meters
Operating hours: N/A
Operating agency: Civil government, landing fees and diplomatic clearance may be required
Timezone: UTC-6
Fuel: Jet A1, without icing nhibitor.

80/87 octane gasoline, leaded, MIL-L-5572F (RED)

100/130 MIL Spec, low lead, aviation gasoline (BLUE)

Runway information:
07/25 - 9882 x 151 feet< - >3012 x 46 meters

Recent METARs:
MROC 170000Z 31004KT 260V040 9999 FEW030 SCT120 23/21 A2995 NOSIG
MROC 170000Z 31004KT 260V040 9999 FEW030 SCT120 23/21 A2995 NOSIG
MROC 170000Z 31004KT 260V040 9999 FEW030 SCT120 23/21 A2995 NOSIG

Airport on the map: